Little Washington, Ohio
Current Conditions -  °F | °C
As of 6:52 AM on Wednesday 26 Nov 2014 (Local Time) from KMFD Reporting Station
Overcast Overcast  
Wind Chill: 23°   Ceiling: 1600
Heat Index: 28°   Visibility: 10mi
Dew Point: 23°   Wind: 5mph
Humidity: 81%   Direction: 30°NNE
Pressure: 30.11"   Gusts: NA
Location:  40.7789°N, 82.5216°W
Report Text: KMFD 261152Z 03004KT 10SM OVC016 M02/M05 A3011 RMK AO2 SLP211 T10221050 11022 21022 55004
Loading
Personal Weather Stations






























Interactive Weather Map New forecast layout! Learn more

10-Day Weather Forecast

Advertisements
Track Severe Weather on mobile